M I D A S
Marine Information and Data Acquisition System
Tripno 1762 of the Zeeleeuw from 2009-07-10 07:18:04 to 2009-07-10 14:34:13
Back to CruiseResearch ActivitiesStationsMapUnderway DataData graphs

EquipmentUnitsComments
TimeDGPSUTC
LatitudeDGPSDM.mWGS84
LongitudeDGPSDM.mWGS84
SpeedMeteo Stationm/sRelative wind speed
DirectionMeteo StationdegRelative wind direction
TemperatureMeteo Stationdeg CelciusAir temperature
PressureMeteo StationPaAtmospheric pressure
HumidityMeteo Station%Relative humidity
Missing or incorrect values are displayed as -999
Metereological data collected by the RV Zeeleeuw from 2009-07-10 06:19:00 to 2009-07-10 14:42:13
Time Latitude Longitude Speed Direction Temperature Pressure Humidity
2009-07-10 06:20 51°13.661 2°55.962 6.2 30 14.8 101400 63
2009-07-10 06:21 51°13.661 2°55.962 6.7 35 14.8 101400 63
2009-07-10 06:22 51°13.661 2°55.962 6.3 33 14.8 101400 63
2009-07-10 06:23 51°13.661 2°55.962 4.3 33 14.7 101400 61
2009-07-10 06:24 51°13.662 2°55.962 4.2 32 14.8 101400 62
2009-07-10 06:25 51°13.662 2°55.961 4 40 14.9 101400 64
2009-07-10 06:26 51°13.663 2°55.961 6.1 36 14.9 101400 64
2009-07-10 06:27 51°13.663 2°55.961 6.1 32 14.9 101400 65
2009-07-10 06:28 51°13.662 2°55.961 4.4 35 14.9 101390 64
2009-07-10 06:29 51°13.662 2°55.961 5.4 39 14.9 101400 64
2009-07-10 06:30 51°13.662 2°55.96 6 38 14.8 101400 64
2009-07-10 06:31 51°13.662 2°55.96 6.1 38 14.8 101400 62
2009-07-10 06:32 51°13.662 2°55.96 6 39 14.8 101410 62
2009-07-10 06:33 51°13.662 2°55.96 4.7 39 14.8 101410 62
2009-07-10 06:34 51°13.662 2°55.959 3.3 33 14.8 101410 63
2009-07-10 06:35 51°13.663 2°55.96 5.8 37 14.9 101410 62
2009-07-10 06:36 51°13.663 2°55.96 6 38 14.8 101400 62
2009-07-10 06:37 51°13.663 2°55.96 5.3 36 14.9 101400 64
2009-07-10 06:38 51°13.663 2°55.959 6.8 34 14.9 101410 64
2009-07-10 06:39 51°13.663 2°55.959 6.3 34 14.8 101410 61
2009-07-10 06:40 51°13.662 2°55.959 5.1 43 14.9 101400 62
2009-07-10 06:41 51°13.662 2°55.959 7.2 31 14.9 101410 63
2009-07-10 06:42 51°13.662 2°55.959 3.4 31 15 101410 64
2009-07-10 06:43 51°13.662 2°55.959 6.3 37 15 101410 62
2009-07-10 06:44 51°13.663 2°55.959 6.4 75 15.1 101410 62
2009-07-10 06:45 51°13.662 2°55.957 5.7 41 15.1 101410 63
2009-07-10 06:46 51°13.662 2°55.958 6.4 28 15 101410 64
2009-07-10 06:47 51°13.663 2°55.958 3.9 21 15.1 101410 64
2009-07-10 06:48 51°13.663 2°55.959 6.6 43 15.1 101420 64
2009-07-10 06:49 51°13.663 2°55.959 7.3 40 15.1 101420 63
2009-07-10 06:50 51°13.663 2°55.959 3.9 23 15.2 101410 64
2009-07-10 06:51 51°13.663 2°55.958 3.6 20 15.2 101410 63
2009-07-10 06:52 51°13.663 2°55.958 4.4 20 15.2 101410 63
2009-07-10 06:53 51°13.663 2°55.959 3.3 21 15.3 101420 64
2009-07-10 06:54 51°13.664 2°55.959 3 21 15.3 101410 64
2009-07-10 06:55 51°13.664 2°55.96 4.4 21 15.3 101420 62
2009-07-10 06:56 51°13.663 2°55.96 6.2 22 15.3 101420 62
2009-07-10 06:57 51°13.665 2°55.96 4.9 24 15.3 101420 62
2009-07-10 06:58 51°13.665 2°55.96 4.1 21 15.4 101420 62
2009-07-10 06:59 51°13.665 2°55.959 4.4 21 15.3 101420 61
2009-07-10 07:00 51°13.664 2°55.959 3.3 20 15.3 101420 63
2009-07-10 07:01 51°13.664 2°55.959 4.6 27 15.4 101420 63
2009-07-10 07:02 51°13.664 2°55.959 7.6 26 15.5 101430 62
2009-07-10 07:03 51°13.663 2°55.959 4.4 23 15.3 101420 60
2009-07-10 07:04 51°13.663 2°55.959 4.9 23 15.4 101430 61
2009-07-10 07:05 51°13.663 2°55.96 3.5 21 15.5 101430 60
2009-07-10 07:06 51°13.662 2°55.96 4 24 15.5 101430 61
2009-07-10 07:07 51°13.662 2°55.96 5.2 27 15.5 101430 60
2009-07-10 07:08 51°13.663 2°55.959 5.6 28 15.5 101440 60
2009-07-10 07:09 51°13.663 2°55.959 7 26 15.5 101430 62
2009-07-10 07:10 51°13.663 2°55.959 6 26 15.4 101440 62
2009-07-10 07:11 51°13.662 2°55.96 7.4 24 15.3 101430 61
2009-07-10 07:12 51°13.662 2°55.961 7 22 15.3 101440 60
2009-07-10 07:13 51°13.662 2°55.96 6.1 27 15.3 101440 62
2009-07-10 07:14 51°13.663 2°55.959 2.4 27 15.4 101440 62
2009-07-10 07:15 51°13.662 2°55.96 5.9 28 15.5 101440 62
2009-07-10 07:16 51°13.662 2°55.961 5.4 26 15.4 101440 62
2009-07-10 07:17 51°13.662 2°55.96 8 21 15.5 101440 62
2009-07-10 07:18 51°13.663 2°55.959 3.8 21 15.4 101440 64
2009-07-10 07:19 51°13.662 2°55.96 7.6 27 15.4 101440 63
2009-07-10 07:20 51°13.662 2°55.96 4.7 23 15.4 101440 63
2009-07-10 07:21 51°13.662 2°55.96 4.1 23 15.5 101450 64
2009-07-10 07:22 51°13.662 2°55.96 5.4 25 15.4 101450 62
2009-07-10 07:23 51°13.662 2°55.96 7 21 15.3 101440 62
2009-07-10 07:24 51°13.662 2°55.959 6.9 27 15.3 101440 63
2009-07-10 07:25 51°13.663 2°55.959 4.2 30 15.4 101450 64
2009-07-10 07:26 51°13.663 2°55.959 5.9 43 15.4 101450 64
2009-07-10 07:27 51°13.662 2°55.96 6.7 29 15.3 101450 62
2009-07-10 07:28 51°13.662 2°55.96 8.3 28 15.3 101440 63
2009-07-10 07:29 51°13.662 2°55.96 5.6 21 15.3 101460 63
2009-07-10 07:30 51°13.662 2°55.959 6.1 26 15.3 101450 63
2009-07-10 07:31 51°13.662 2°55.955 5.5 24 15.4 101450 63
2009-07-10 07:32 51°13.681 2°55.881 9.3 26 15.6 101450 65
2009-07-10 07:33 51°13.699 2°55.789 9.9 25 15.4 101460 61
2009-07-10 07:34 51°13.706 2°55.763 6.7 265 15.3 101460 62
2009-07-10 07:35 51°13.695 2°55.744 6.8 253 15.3 101450 61
2009-07-10 07:36 51°13.704 2°55.754 6.6 21 15.4 101440 62
2009-07-10 07:37 51°13.768 2°55.692 8.9 324 15.5 101440 62
2009-07-10 07:38 51°13.874 2°55.599 10.8 328 15.5 101430 61
2009-07-10 07:39 51°13.997 2°55.505 7.7 320 15.5 101430 62
2009-07-10 07:40 51°14.12 2°55.416 14.7 25 15.5 101430 63
2009-07-10 07:41 51°14.234 2°55.295 13.4 322 15.4 101410 63
2009-07-10 07:42 51°14.337 2°55.125 15.1 326 15.4 101400 65
2009-07-10 07:43 51°14.421 2°54.895 16.2 331 15.3 101400 63
2009-07-10 07:44 51°14.385 2°54.614 14.1 346 15.2 101410 63
2009-07-10 07:45 51°14.299 2°54.331 16.6 347 15.2 101410 64
2009-07-10 07:46 51°14.211 2°54.045 15.4 345 15.1 101390 65
2009-07-10 07:47 51°14.124 2°53.754 17.8 345 15 101420 65
2009-07-10 07:48 51°14.038 2°53.472 16 345 15 101420 64
2009-07-10 07:49 51°13.952 2°53.191 15.7 351 14.9 101410 62
2009-07-10 07:50 51°13.863 2°52.901 14.8 348 15 101420 64
2009-07-10 07:51 51°13.779 2°52.617 13.4 345 14.9 101420 62
2009-07-10 07:52 51°13.693 2°52.331 14.7 345 15 101410 61
2009-07-10 07:53 51°13.604 2°52.037 16.2 345 15 101410 62
2009-07-10 07:54 51°13.534 2°51.74 14.4 338 15 101420 63
2009-07-10 07:55 51°13.513 2°51.548 10.2 344 15 101440 62
2009-07-10 07:56 51°13.474 2°51.465 9.5 357 15.1 101420 62
2009-07-10 07:57 51°13.437 2°51.411 8.3 3 14.9 101430 62
2009-07-10 07:58 51°13.392 2°51.356 9.3 15 15.1 101440 65
2009-07-10 07:59 51°13.327 2°51.321 10.1 13 15.2 101450 65
2009-07-10 08:00 51°13.263 2°51.266 10.8 3 15.3 101430 65
2009-07-10 08:01 51°13.219 2°51.201 9.2 355 15.1 101440 64
2009-07-10 08:02 51°13.174 2°51.141 11 6 15.1 101440 65
2009-07-10 08:03 51°13.128 2°51.09 7.9 4 15.2 101450 66
2009-07-10 08:04 51°13.08 2°51.041 10 14 15.1 101440 63
2009-07-10 08:05 51°13.029 2°50.996 11.4 7 15 101450 63
2009-07-10 08:06 51°12.978 2°50.947 9.7 13 15 101450 64
2009-07-10 08:07 51°12.927 2°50.903 10.4 13 15 101460 62
2009-07-10 08:08 51°12.876 2°50.852 9 6 15.2 101450 66
2009-07-10 08:09 51°12.829 2°50.801 9.2 5 15.2 101450 65
2009-07-10 08:10 51°12.786 2°50.742 8.1 6 15.1 101440 63
2009-07-10 08:11 51°12.744 2°50.681 9.1 8 15 101450 63
2009-07-10 08:12 51°12.704 2°50.618 11.3 356 15 101450 63
2009-07-10 08:13 51°12.667 2°50.55 11.5 354 15 101450 64
2009-07-10 08:14 51°12.629 2°50.483 12.2 359 14.9 101450 62
2009-07-10 08:15 51°12.592 2°50.417 10.9 354 14.9 101450 62
2009-07-10 08:16 51°12.557 2°50.351 12.2 354 14.9 101450 64
2009-07-10 08:17 51°12.524 2°50.277 11.4 349 14.9 101460 63
2009-07-10 08:18 51°12.493 2°50.207 10.3 353 15.1 101460 65
2009-07-10 08:19 51°12.465 2°50.132 10.9 350 15.1 101460 64
2009-07-10 08:20 51°12.439 2°50.056 10 346 15 101460 63
2009-07-10 08:21 51°12.413 2°49.983 9.4 349 14.9 101460 63
2009-07-10 08:22 51°12.389 2°49.904 10.2 344 14.9 101470 63
2009-07-10 08:23 51°12.373 2°49.817 11 342 14.9 101470 63
2009-07-10 08:24 51°12.359 2°49.726 8.8 340 15.1 101480 65
2009-07-10 08:25 51°12.346 2°49.637 9.7 339 15.1 101470 64
2009-07-10 08:26 51°12.329 2°49.551 10.6 341 15.1 101470 62
2009-07-10 08:27 51°12.299 2°49.468 10.4 358 15.2 101470 65
2009-07-10 08:28 51°12.254 2°49.4 10.5 9 15.1 101480 63
2009-07-10 08:29 51°12.201 2°49.338 12.3 10 15.2 101480 66
2009-07-10 08:30 51°12.153 2°49.27 7.3 5 15.2 101470 64
2009-07-10 08:31 51°12.108 2°49.2 9 6 15.1 101470 64
2009-07-10 08:32 51°12.065 2°49.128 9.7 2 15.2 101480 63
2009-07-10 08:33 51°12.025 2°49.058 11.2 355 15.1 101470 66
2009-07-10 08:34 51°11.994 2°49.001 9.2 348 15.1 101480 64
2009-07-10 08:35 51°11.97 2°48.934 10 347 15.1 101480 65
2009-07-10 08:36 51°11.945 2°48.854 10.9 345 15 101480 64
2009-07-10 08:37 51°11.927 2°48.767 10.1 330 15 101490 65
2009-07-10 08:38 51°11.946 2°48.707 10 246 15.1 101480 66
2009-07-10 08:39 51°11.977 2°48.709 9.8 253 15.2 101490 65
2009-07-10 08:40 51°11.998 2°48.712 10 246 15.2 101480 65
2009-07-10 08:41 51°12.031 2°48.724 10.3 253 15.2 101490 63
2009-07-10 08:42 51°12.108 2°48.822 9.5 259 15.3 101490 64
2009-07-10 08:43 51°12.208 2°48.997 9.5 21 15.4 101490 64
2009-07-10 08:44 51°12.308 2°49.195 9.3 253 15.4 101490 64
2009-07-10 08:45 51°12.412 2°49.399 8.7 250 15.4 101490 64
2009-07-10 08:46 51°12.515 2°49.592 10.3 252 15.5 101500 63
2009-07-10 08:47 51°12.617 2°49.794 9.9 251 15.5 101480 63
2009-07-10 08:48 51°12.714 2°50.006 8 248 15.4 101480 61
2009-07-10 08:49 51°12.802 2°50.222 8.2 253 15.5 101500 63
2009-07-10 08:50 51°12.89 2°50.44 9 247 15.6 101480 64
2009-07-10 08:51 51°12.986 2°50.648 8.1 252 15.6 101490 63
2009-07-10 08:52 51°13.084 2°50.854 9.5 249 15.6 101490 63
2009-07-10 08:53 51°13.192 2°51.042 12.6 251 15.7 101500 62
2009-07-10 08:54 51°13.31 2°51.23 10.3 19 15.6 101490 62
2009-07-10 08:55 51°13.378 2°51.337 9.4 251 15.6 101490 64
2009-07-10 08:56 51°13.39 2°51.341 11.8 247 15.5 101480 62
2009-07-10 08:57 51°13.385 2°51.333 10.5 251 15.5 101480 62
2009-07-10 08:58 51°13.372 2°51.322 8.4 253 15.6 101500 63
2009-07-10 08:59 51°13.356 2°51.312 10 252 15.8 101490 66
2009-07-10 09:00 51°13.336 2°51.303 8.4 263 15.6 101490 62
2009-07-10 09:01 51°13.314 2°51.289 8 266 15.6 101510 61
2009-07-10 09:02 51°13.291 2°51.274 6.5 263 15.4 101490 60
2009-07-10 09:03 51°13.269 2°51.259 10 270 15.4 101500 61
2009-07-10 09:04 51°13.248 2°51.246 6.2 266 15.3 101490 59
2009-07-10 09:05 51°13.239 2°51.251 7.9 29 15.3 101490 62
2009-07-10 09:06 51°13.215 2°51.299 7.3 38 15.3 101510 61
2009-07-10 09:07 51°13.133 2°51.269 10.7 8 15.4 101500 64
2009-07-10 09:08 51°13.015 2°51.092 14.7 359 15.4 101480 64
2009-07-10 09:09 51°12.904 2°50.846 12.7 351 15.1 101480 59
2009-07-10 09:10 51°12.788 2°50.575 11.8 351 15.1 101480 60
2009-07-10 09:11 51°12.675 2°50.298 13.1 351 15.2 101490 63
2009-07-10 09:12 51°12.56 2°50.022 13.6 350 15.2 101490 64
2009-07-10 09:13 51°12.483 2°49.725 12.4 345 15.2 101490 65
2009-07-10 09:14 51°12.421 2°49.414 12.5 344 15.3 101490 65
2009-07-10 09:15 51°12.343 2°49.108 13.7 347 15.2 101500 62
2009-07-10 09:16 51°12.258 2°48.813 14.8 349 15.1 101490 62
2009-07-10 09:17 51°12.175 2°48.515 12.6 346 15.1 101500 62
2009-07-10 09:18 51°12.093 2°48.214 13.8 344 15.1 101490 63
2009-07-10 09:19 51°12.009 2°47.915 15.3 349 15.1 101490 64
2009-07-10 09:20 51°11.928 2°47.612 12.7 347 14.9 101500 62
2009-07-10 09:21 51°11.847 2°47.312 16.1 350 15 101500 63
2009-07-10 09:22 51°11.759 2°47.02 13.3 349 15.1 101500 65
2009-07-10 09:23 51°11.673 2°46.731 12.4 347 15.1 101510 64
2009-07-10 09:24 51°11.585 2°46.434 14.9 343 15 101490 64
2009-07-10 09:25 51°11.499 2°46.14 14.1 347 15.1 101500 62
2009-07-10 09:26 51°11.413 2°45.844 13.8 349 15.1 101500 62
2009-07-10 09:27 51°11.326 2°45.549 14 346 15 101510 63
2009-07-10 09:28 51°11.242 2°45.257 15.5 342 15 101520 64
2009-07-10 09:29 51°11.173 2°44.999 10.7 355 15 101520 64
2009-07-10 09:30 51°11.094 2°44.91 9.9 11 14.9 101530 63
2009-07-10 09:31 51°11.032 2°44.866 10.1 17 15 101520 66
2009-07-10 09:32 51°10.978 2°44.812 8.3 2 15.1 101530 65
2009-07-10 09:33 51°10.936 2°44.747 10.4 355 15.1 101540 66
2009-07-10 09:34 51°10.896 2°44.672 8.9 357 15 101530 64
2009-07-10 09:35 51°10.855 2°44.595 8.7 354 15.1 101540 68
2009-07-10 09:36 51°10.816 2°44.528 10.4 354 14.9 101530 64
2009-07-10 09:37 51°10.779 2°44.459 9.6 355 14.9 101540 67
2009-07-10 09:38 51°10.745 2°44.382 10.3 354 14.8 101540 64
2009-07-10 09:39 51°10.715 2°44.299 9.3 343 14.8 101540 65
2009-07-10 09:40 51°10.692 2°44.209 10.2 344 14.9 101550 66
2009-07-10 09:41 51°10.683 2°44.112 9.4 329 15.1 101550 66
2009-07-10 09:42 51°10.678 2°44.012 10.6 332 15 101540 66
2009-07-10 09:43 51°10.668 2°43.912 9.9 340 15 101540 64
2009-07-10 09:44 51°10.653 2°43.816 10 346 15 101540 65
2009-07-10 09:45 51°10.638 2°43.72 9.1 342 15 101530 63
2009-07-10 09:46 51°10.622 2°43.631 9.2 347 15 101540 65
2009-07-10 09:47 51°10.606 2°43.538 9.5 342 15 101540 65
2009-07-10 09:48 51°10.59 2°43.445 9 341 14.9 101540 62
2009-07-10 09:49 51°10.575 2°43.349 9.6 335 15 101550 64
2009-07-10 09:50 51°10.56 2°43.254 10.1 338 15 101550 63
2009-07-10 09:51 51°10.546 2°43.158 9.4 337 15.1 101550 64
2009-07-10 09:52 51°10.534 2°43.06 10.8 333 15.1 101550 64
2009-07-10 09:53 51°10.52 2°42.961 9.1 333 15.2 101560 65
2009-07-10 09:54 51°10.508 2°42.863 11.5 334 15.1 101550 64
2009-07-10 09:55 51°10.495 2°42.762 10.2 334 15.1 101560 65
2009-07-10 09:56 51°10.482 2°42.667 9.9 337 15.1 101570 65
2009-07-10 09:57 51°10.468 2°42.569 10.2 338 15.2 101570 67
2009-07-10 09:58 51°10.453 2°42.475 9.6 340 15.2 101560 65
2009-07-10 09:59 51°10.441 2°42.37 11.4 336 15.2 101570 66
2009-07-10 10:00 51°10.419 2°42.274 9.5 348 15.1 101550 64
2009-07-10 10:01 51°10.371 2°42.2 8.3 6 15 101560 63
2009-07-10 10:02 51°10.307 2°42.153 8.7 13 15 101540 63
2009-07-10 10:03 51°10.242 2°42.125 9.1 22 15 101560 66
2009-07-10 10:04 51°10.175 2°42.103 8.3 16 15.1 101560 66
2009-07-10 10:05 51°10.115 2°42.052 7.5 3 15 101550 64
2009-07-10 10:06 51°10.066 2°41.985 8.7 1 14.9 101550 64
2009-07-10 10:07 51°10.022 2°41.913 10.1 351 14.8 101550 63
2009-07-10 10:08 51°9.987 2°41.835 8 350 14.8 101540 65
2009-07-10 10:09 51°9.963 2°41.786 8.9 358 14.8 101540 65
2009-07-10 10:10 51°9.945 2°41.754 7.6 351 14.9 101550 65
2009-07-10 10:11 51°9.928 2°41.738 8.5 358 14.8 101560 65
2009-07-10 10:12 51°9.909 2°41.726 9.5 14 14.9 101550 65
2009-07-10 10:13 51°9.866 2°41.725 6.8 42 15 101570 66
2009-07-10 10:14 51°9.864 2°41.834 6 27 15 101580 66
2009-07-10 10:15 51°9.922 2°42.022 7 257 15.2 101590 67
2009-07-10 10:16 51°9.993 2°42.236 7.9 260 15.2 101580 66
2009-07-10 10:17 51°10.078 2°42.434 10.1 248 15.2 101570 64
2009-07-10 10:18 51°10.187 2°42.524 9.7 24 15.2 101580 64
2009-07-10 10:19 51°10.221 2°42.54 10 260 15.3 101580 64
2009-07-10 10:20 51°10.228 2°42.552 5.5 264 15.2 101590 63
2009-07-10 10:21 51°10.226 2°42.555 7.1 262 15.1 101580 63
2009-07-10 10:22 51°10.219 2°42.548 6.8 270 15.2 101570 64
2009-07-10 10:23 51°10.209 2°42.543 5.7 268 15.3 101590 65
2009-07-10 10:24 51°10.197 2°42.537 6.6 268 15.3 101610 65
2009-07-10 10:25 51°10.195 2°42.535 10.3 245 15.3 101580 65
2009-07-10 10:26 51°10.225 2°42.497 10.3 326 15.2 101570 64
2009-07-10 10:27 51°10.244 2°42.342 14.4 335 15.1 101550 63
2009-07-10 10:28 51°10.236 2°42.092 12.8 344 15.2 101570 64
2009-07-10 10:29 51°10.212 2°41.826 12.5 339 15.3 101570 63
2009-07-10 10:30 51°10.189 2°41.539 13.8 337 15.2 101570 62
2009-07-10 10:31 51°10.166 2°41.225 15.5 335 15.3 101570 64
2009-07-10 10:32 51°10.149 2°40.907 16.8 332 15.3 101580 63
2009-07-10 10:33 51°10.131 2°40.584 12.9 335 15.3 101580 63
2009-07-10 10:34 51°10.112 2°40.258 15.4 334 15.3 101580 63
2009-07-10 10:35 51°10.093 2°39.932 14.9 333 15.3 101580 63
2009-07-10 10:36 51°10.076 2°39.608 15.5 336 15.2 101580 63
2009-07-10 10:37 51°10.059 2°39.291 14.8 338 15.2 101580 63
2009-07-10 10:38 51°10.053 2°38.979 13.3 333 15.3 101590 64
2009-07-10 10:39 51°10.072 2°38.669 11.4 333 15.2 101580 62
2009-07-10 10:40 51°10.092 2°38.359 15.2 332 15.2 101590 63
2009-07-10 10:41 51°10.11 2°38.047 14.9 334 15.2 101590 63
2009-07-10 10:42 51°10.121 2°37.735 14.2 336 15.2 101590 64
2009-07-10 10:43 51°10.135 2°37.423 14.1 329 15.3 101580 64
2009-07-10 10:44 51°10.151 2°37.111 12.1 336 15.3 101590 64
2009-07-10 10:45 51°10.216 2°36.838 15.5 323 15.3 101580 66
2009-07-10 10:46 51°10.336 2°36.623 15 320 15.3 101580 64
2009-07-10 10:47 51°10.456 2°36.416 15.3 318 15.3 101580 63
2009-07-10 10:48 51°10.579 2°36.221 9.7 24 15.3 101570 63
2009-07-10 10:49 51°10.736 2°36.205 10.7 19 15.3 101580 62
2009-07-10 10:50 51°10.886 2°36.298 10.1 245 15.3 101600 61
2009-07-10 10:51 51°11.034 2°36.394 11.2 27 15.3 101600 60
2009-07-10 10:52 51°11.192 2°36.454 12.1 25 15.4 101600 62
2009-07-10 10:53 51°11.346 2°36.52 11 248 15.4 101590 61
2009-07-10 10:54 51°11.498 2°36.604 9 251 15.4 101590 61
2009-07-10 10:55 51°11.649 2°36.686 10.1 250 15.4 101590 61
2009-07-10 10:56 51°11.803 2°36.768 11.3 26 15.5 101590 62
2009-07-10 10:57 51°11.956 2°36.851 9.2 243 15.7 101590 61
2009-07-10 10:58 51°12.112 2°36.933 9.9 26 15.6 101580 62
2009-07-10 10:59 51°12.266 2°37.016 11.7 26 15.6 101580 61
2009-07-10 11:00 51°12.415 2°37.098 8.5 22 15.6 101590 61
2009-07-10 11:01 51°12.572 2°37.184 8.3 24 15.6 101590 62
2009-07-10 11:02 51°12.727 2°37.266 10.4 25 15.7 101590 63
2009-07-10 11:03 51°12.887 2°37.305 13.6 21 15.6 101580 61
2009-07-10 11:04 51°13.053 2°37.289 11.7 27 15.5 101590 62
2009-07-10 11:05 51°13.22 2°37.272 10.3 30 15.5 101600 62
2009-07-10 11:06 51°13.386 2°37.243 11.1 22 15.4 101590 61
2009-07-10 11:07 51°13.553 2°37.209 12.8 25 15.5 101580 63
2009-07-10 11:08 51°13.722 2°37.172 12.9 21 15.5 101590 63
2009-07-10 11:09 51°13.893 2°37.12 11.5 22 15.4 101580 62
2009-07-10 11:10 51°14.057 2°37.046 13.4 29 15.4 101590 64
2009-07-10 11:11 51°14.208 2°36.916 14 20 15.4 101600 63
2009-07-10 11:12 51°14.348 2°36.769 12.2 316 15.3 101590 63
2009-07-10 11:13 51°14.492 2°36.617 10.7 316 15.3 101590 63
2009-07-10 11:14 51°14.637 2°36.459 14.6 23 15.3 101580 65
2009-07-10 11:15 51°14.775 2°36.287 10.9 317 15.4 101590 65
2009-07-10 11:16 51°14.896 2°36.086 14.7 324 15.5 101590 66
2009-07-10 11:17 51°15 2°35.851 14.1 321 15.4 101600 65
2009-07-10 11:18 51°15.1 2°35.613 15.2 322 15.4 101610 65
2009-07-10 11:19 51°15.208 2°35.379 15.5 324 15.4 101590 65
2009-07-10 11:20 51°15.25 2°35.101 14.2 329 15.3 101590 63
2009-07-10 11:21 51°15.303 2°34.814 12.6 324 15.4 101610 65
2009-07-10 11:22 51°15.398 2°34.563 13.1 323 15.4 101580 64
2009-07-10 11:23 51°15.496 2°34.311 14 321 15.4 101590 63
2009-07-10 11:24 51°15.591 2°34.062 11.9 322 15.4 101580 64
2009-07-10 11:25 51°15.687 2°33.819 12.6 321 15.4 101590 63
2009-07-10 11:26 51°15.789 2°33.587 13.7 321 15.4 101610 62
2009-07-10 11:27 51°15.89 2°33.369 11.9 317 15.4 101600 64
2009-07-10 11:28 51°15.991 2°33.162 14.4 317 15.4 101570 63
2009-07-10 11:29 51°16.093 2°32.957 11.3 320 15.5 101600 64
2009-07-10 11:30 51°16.173 2°32.724 14.6 334 15.5 101580 64
2009-07-10 11:31 51°16.152 2°32.433 12.3 336 15.4 101570 64
2009-07-10 11:32 51°16.111 2°32.139 13.2 336 15.5 101590 66
2009-07-10 11:33 51°16.069 2°31.849 12.2 340 15.5 101580 63
2009-07-10 11:34 51°16.027 2°31.556 11.7 337 15.5 101570 64
2009-07-10 11:35 51°15.985 2°31.264 12.2 342 15.5 101590 64
2009-07-10 11:36 51°15.946 2°30.963 13.2 337 15.5 101570 63
2009-07-10 11:37 51°15.916 2°30.655 15 338 15.5 101620 63
2009-07-10 11:38 51°15.887 2°30.346 11.2 336 15.5 101610 64
2009-07-10 11:39 51°15.855 2°30.036 13.7 334 15.4 101610 63
2009-07-10 11:40 51°15.821 2°29.728 14.3 337 15.4 101610 62
2009-07-10 11:41 51°15.798 2°29.418 11.5 332 15.5 101610 63
2009-07-10 11:42 51°15.789 2°29.112 12.9 333 15.5 101610 64
2009-07-10 11:43 51°15.779 2°28.806 12.8 332 15.5 101610 64
2009-07-10 11:44 51°15.767 2°28.498 14.2 332 15.5 101620 64
2009-07-10 11:45 51°15.755 2°28.189 14.3 336 15.5 101610 64
2009-07-10 11:46 51°15.743 2°27.88 16.8 335 15.5 101610 64
2009-07-10 11:47 51°15.726 2°27.569 12.9 335 15.4 101600 62
2009-07-10 11:48 51°15.712 2°27.259 13.6 332 15.5 101620 63
2009-07-10 11:49 51°15.7 2°26.952 14.3 335 15.5 101620 64
2009-07-10 11:50 51°15.696 2°26.653 14.8 334 15.6 101620 64
2009-07-10 11:51 51°15.744 2°26.382 15.4 327 15.5 101610 64
2009-07-10 11:52 51°15.825 2°26.132 11.8 327 15.5 101610 63
2009-07-10 11:53 51°15.922 2°25.908 13.1 325 15.4 101620 61
2009-07-10 11:54 51°16.027 2°25.699 13.1 330 15.5 101620 63
2009-07-10 11:55 51°16.151 2°25.521 10.3 316 15.5 101610 62
2009-07-10 11:56 51°16.31 2°25.459 9.2 28 15.5 101600 63
2009-07-10 11:57 51°16.462 2°25.58 8.5 253 15.6 101620 63
2009-07-10 11:58 51°16.565 2°25.662 7.4 25 15.6 101610 63
2009-07-10 11:59 51°16.593 2°25.596 8.1 340 15.7 101620 63
2009-07-10 12:00 51°16.548 2°25.57 7 23 15.8 101600 66
2009-07-10 12:01 51°16.488 2°25.607 6 20 15.6 101610 62
2009-07-10 12:02 51°16.43 2°25.614 6.7 14 15.6 101590 63
2009-07-10 12:03 51°16.38 2°25.599 6 5 15.5 101600 63
2009-07-10 12:04 51°16.331 2°25.581 8.9 11 15.5 101600 62
2009-07-10 12:05 51°16.281 2°25.565 7.8 9 15.5 101600 63
2009-07-10 12:06 51°16.23 2°25.545 7.9 1 15.6 101600 63
2009-07-10 12:07 51°16.185 2°25.509 9.6 355 15.4 101590 63
2009-07-10 12:08 51°16.149 2°25.451 8.6 357 15.4 101610 62
2009-07-10 12:09 51°16.114 2°25.383 9.2 351 15.5 101600 65
2009-07-10 12:10 51°16.074 2°25.319 8.2 356 15.4 101610 62
2009-07-10 12:11 51°16.037 2°25.256 8.6 356 15.4 101600 63
2009-07-10 12:12 51°16 2°25.192 7.3 352 15.4 101590 64
2009-07-10 12:13 51°15.96 2°25.133 7.8 3 15.4 101610 64
2009-07-10 12:14 51°15.906 2°25.098 6.8 8 15.4 101580 64
2009-07-10 12:15 51°15.841 2°25.098 6.4 16 15.4 101610 63
2009-07-10 12:16 51°15.774 2°25.105 6.8 11 15.5 101590 63
2009-07-10 12:17 51°15.716 2°25.086 6 356 15.5 101600 63
2009-07-10 12:18 51°15.661 2°25.055 7.9 1 15.6 101600 65
2009-07-10 12:19 51°15.612 2°25.013 7.6 1 15.4 101590 62
2009-07-10 12:20 51°15.557 2°24.989 7.1 13 15.5 101600 62
2009-07-10 12:21 51°15.492 2°24.985 7.6 14 15.6 101610 63
2009-07-10 12:22 51°15.427 2°24.986 8.5 10 15.6 101610 63
2009-07-10 12:23 51°15.363 2°24.991 7.9 12 15.6 101600 62
2009-07-10 12:24 51°15.298 2°24.995 5.6 17 15.7 101610 62
2009-07-10 12:25 51°15.235 2°24.987 7.4 8 15.7 101610 63
2009-07-10 12:26 51°15.185 2°24.951 8.1 356 15.7 101610 62
2009-07-10 12:27 51°15.144 2°24.901 7.8 352 15.6 101610 61
2009-07-10 12:28 51°15.105 2°24.844 6.5 355 15.6 101600 64
2009-07-10 12:29 51°15.069 2°24.788 7.8 350 15.7 101610 64
2009-07-10 12:30 51°15.037 2°24.729 7.6 348 15.5 101610 61
2009-07-10 12:31 51°15.013 2°24.669 6.6 345 15.5 101610 62
2009-07-10 12:32 51°15.001 2°24.602 7.5 346 15.7 101600 63
2009-07-10 12:33 51°15.007 2°24.536 9.3 336 15.7 101610 62
2009-07-10 12:34 51°15.035 2°24.481 7.1 321 15.8 101610 60
2009-07-10 12:35 51°15.1 2°24.456 8 26 15.8 101610 61
2009-07-10 12:36 51°15.186 2°24.503 7 250 15.9 101580 61
2009-07-10 12:37 51°15.227 2°24.568 4.1 264 16.1 101600 62
2009-07-10 12:38 51°15.25 2°24.633 5.1 30 16.1 101610 60
2009-07-10 12:39 51°15.297 2°24.698 6.8 23 16.1 101620 61
2009-07-10 12:40 51°15.421 2°24.767 6.8 26 16.1 101600 60
2009-07-10 12:41 51°15.586 2°24.88 7.8 30 16.1 101580 60
2009-07-10 12:42 51°15.762 2°25.014 8.1 30 16.1 101580 61
2009-07-10 12:43 51°15.928 2°25.155 7.4 20 16.2 101600 61
2009-07-10 12:44 51°16.105 2°25.257 8.6 22 16.2 101570 60
2009-07-10 12:45 51°16.213 2°25.382 3.7 262 16.1 101600 61
2009-07-10 12:46 51°16.239 2°25.46 5 26 16.2 101610 61
2009-07-10 12:47 51°16.244 2°25.515 3.2 22 16.4 101610 63
2009-07-10 12:48 51°16.246 2°25.565 5.3 44 16.5 101600 60
2009-07-10 12:49 51°16.244 2°25.618 6.1 23 16.3 101610 61
2009-07-10 12:50 51°16.243 2°25.677 5.5 21 16.1 101610 60
2009-07-10 12:51 51°16.219 2°25.743 5.1 6 16.1 101620 61
2009-07-10 12:52 51°16.179 2°25.738 8.2 335 16 101580 61
2009-07-10 12:53 51°16.184 2°25.685 5.9 317 16 101600 61
2009-07-10 12:54 51°16.222 2°25.679 8.3 243 16 101590 60
2009-07-10 12:55 51°16.246 2°25.713 7.5 255 16.1 101600 62
2009-07-10 12:56 51°16.262 2°25.758 6.4 252 16.2 101580 62
2009-07-10 12:57 51°16.269 2°25.805 5.7 254 16.4 101600 62
2009-07-10 12:58 51°16.271 2°25.859 7.4 252 16.4 101590 61
2009-07-10 12:59 51°16.271 2°25.913 3.9 263 16.4 101600 60
2009-07-10 13:00 51°16.269 2°25.968 4.6 270 16.4 101610 59
2009-07-10 13:01 51°16.271 2°26.021 4.6 260 16.3 101610 59
2009-07-10 13:02 51°16.301 2°26.04 8.6 324 16.4 101590 60
2009-07-10 13:03 51°16.284 2°26.016 7.5 7 16.3 101580 59
2009-07-10 13:04 51°16.208 2°26.071 9.7 4 16.2 101590 62
2009-07-10 13:05 51°16.081 2°26.157 4.7 15 16 101580 60
2009-07-10 13:06 51°16 2°26.437 2 20 16.1 101590 61
2009-07-10 13:07 51°15.98 2°26.769 2.1 31 16.1 101600 61
2009-07-10 13:08 51°15.965 2°27.102 1.2 36 16.2 101610 62
2009-07-10 13:09 51°15.968 2°27.434 1.3 44 16.2 101570 61
2009-07-10 13:10 51°15.973 2°27.759 1.7 22 16.3 101580 61
2009-07-10 13:11 51°15.97 2°28.081 1.8 30 16.3 101590 62
2009-07-10 13:12 51°15.963 2°28.399 1.6 24 16.5 101590 63
2009-07-10 13:13 51°15.958 2°28.714 3 33 16.6 101570 63
2009-07-10 13:14 51°15.951 2°29.03 1.6 25 16.5 101600 61
2009-07-10 13:15 51°15.95 2°29.352 1.3 27 16.5 101590 62
2009-07-10 13:16 51°15.945 2°29.675 2 32 16.5 101590 62
2009-07-10 13:17 51°15.942 2°30.004 1.5 37 16.5 101600 62
2009-07-10 13:18 51°15.939 2°30.33 0.9 29 16.5 101600 62
2009-07-10 13:19 51°15.937 2°30.658 1.1 30 16.6 101590 63
2009-07-10 13:20 51°15.933 2°30.987 2.4 40 16.6 101580 62
2009-07-10 13:21 51°15.93 2°31.313 1.9 43 16.6 101610 63
2009-07-10 13:22 51°15.927 2°31.641 1.3 36 16.5 101580 62
2009-07-10 13:23 51°15.922 2°31.97 1.6 42 16.4 101590 61
2009-07-10 13:24 51°15.919 2°32.305 1.9 33 16.4 101590 62
2009-07-10 13:25 51°15.917 2°32.64 2 38 16.4 101580 62
2009-07-10 13:26 51°15.91 2°32.977 0.8 30 16.4 101580 62
2009-07-10 13:27 51°15.903 2°33.316 1.3 34 16.5 101600 63
2009-07-10 13:28 51°15.9 2°33.648 1.8 22 16.7 101570 62
2009-07-10 13:29 51°15.875 2°33.982 2.2 32 16.7 101570 63
2009-07-10 13:30 51°15.843 2°34.309 2 26 16.7 101580 62
2009-07-10 13:31 51°15.815 2°34.637 1.8 10 16.6 101590 63
2009-07-10 13:32 51°15.798 2°34.956 3.5 18 16.6 101600 63
2009-07-10 13:33 51°15.781 2°35.276 1.3 4 16.5 101580 62
2009-07-10 13:34 51°15.764 2°35.601 2.4 26 16.5 101570 62
2009-07-10 13:35 51°15.745 2°35.928 1.1 26 16.5 101570 63
2009-07-10 13:36 51°15.73 2°36.259 1.2 16 16.5 101580 62
2009-07-10 13:37 51°15.714 2°36.594 1 357 16.6 101590 62
2009-07-10 13:38 51°15.688 2°36.921 2.8 24 16.7 101580 63
2009-07-10 13:39 51°15.642 2°37.241 3.5 14 16.7 101580 63
2009-07-10 13:40 51°15.587 2°37.559 2.2 24 16.6 101570 61
2009-07-10 13:41 51°15.532 2°37.879 4.2 20 16.6 101590 63
2009-07-10 13:42 51°15.481 2°38.204 4.6 9 16.5 101590 62
2009-07-10 13:43 51°15.432 2°38.532 4.1 22 16.7 101570 64
2009-07-10 13:44 51°15.386 2°38.853 2.6 24 16.7 101580 64
2009-07-10 13:45 51°15.334 2°39.173 3.4 17 16.6 101590 64
2009-07-10 13:46 51°15.29 2°39.494 1.6 31 16.6 101580 63
2009-07-10 13:47 51°15.253 2°39.816 1.7 17 16.6 101590 63
2009-07-10 13:48 51°15.224 2°40.141 3.6 15 16.7 101580 63
2009-07-10 13:49 51°15.193 2°40.463 3.5 20 16.7 101590 62
2009-07-10 13:50 51°15.155 2°40.787 4.3 22 16.6 101590 63
2009-07-10 13:51 51°15.12 2°41.114 2.4 17 16.7 101590 63
2009-07-10 13:52 51°15.088 2°41.437 3.9 21 16.7 101590 64
2009-07-10 13:53 51°15.051 2°41.764 2.5 16 16.7 101590 63
2009-07-10 13:54 51°15.014 2°42.092 3 13 16.7 101580 64
2009-07-10 13:55 51°14.988 2°42.424 2 19 16.8 101580 64
2009-07-10 13:56 51°14.966 2°42.758 3.7 27 16.8 101580 64
2009-07-10 13:57 51°14.946 2°43.093 2.7 29 16.9 101590 63
2009-07-10 13:58 51°14.949 2°43.431 1.2 16 16.9 101590 62
2009-07-10 13:59 51°14.959 2°43.773 1.3 26 17 101580 64
2009-07-10 14:00 51°14.962 2°44.117 2.7 29 17 101580 62
2009-07-10 14:01 51°14.961 2°44.464 2.9 28 16.9 101580 60
2009-07-10 14:02 51°14.959 2°44.802 1.6 37 16.9 101580 61
2009-07-10 14:03 51°14.956 2°45.126 2.4 44 16.9 101600 60
2009-07-10 14:04 51°14.954 2°45.449 2.5 33 17 101600 61
2009-07-10 14:05 51°14.951 2°45.774 1.3 43 16.9 101580 60
2009-07-10 14:06 51°14.949 2°46.1 2.1 40 17 101590 61
2009-07-10 14:07 51°14.953 2°46.425 2.3 26 17 101590 61
2009-07-10 14:08 51°14.958 2°46.748 1 43 17 101590 61
2009-07-10 14:09 51°14.967 2°47.069 3 36 17.1 101600 61
2009-07-10 14:10 51°14.966 2°47.388 3.3 31 17.1 101590 60
2009-07-10 14:11 51°14.967 2°47.71 2.2 33 17 101590 60
2009-07-10 14:12 51°14.969 2°48.033 2.5 29 17 101580 60
2009-07-10 14:13 51°14.975 2°48.362 2.1 40 17 101590 59
2009-07-10 14:14 51°14.98 2°48.698 2.4 29 17 101590 60
2009-07-10 14:15 51°14.984 2°49.048 1.6 26 17.1 101590 59
2009-07-10 14:16 51°14.994 2°49.395 1.2 23 17.2 101600 60
2009-07-10 14:17 51°15.002 2°49.743 1.1 31 17.4 101600 60
2009-07-10 14:18 51°15.01 2°50.093 0.6 40 17.7 101590 60
2009-07-10 14:19 51°15.018 2°50.441 2.3 33 17.9 101600 61
2009-07-10 14:20 51°15.026 2°50.786 1 41 17.9 101600 59
2009-07-10 14:21 51°15.032 2°51.133 1.2 21 17.8 101600 58
2009-07-10 14:22 51°15.032 2°51.478 3.3 31 17.7 101590 59
2009-07-10 14:23 51°15 2°51.81 2.7 27 17.5 101590 58
2009-07-10 14:24 51°14.955 2°52.134 2 14 17.5 101570 59
2009-07-10 14:25 51°14.898 2°52.446 3.3 22 17.4 101590 61
2009-07-10 14:26 51°14.842 2°52.764 3.2 18 17.4 101590 61
2009-07-10 14:27 51°14.798 2°53.083 1.9 29 17.3 101590 60
2009-07-10 14:28 51°14.757 2°53.405 3 19 17.2 101590 60
2009-07-10 14:29 51°14.712 2°53.721 2 22 17.3 101590 61
2009-07-10 14:30 51°14.676 2°54.055 2.4 35 17.2 101580 61
2009-07-10 14:31 51°14.613 2°54.36 4.6 18 17.1 101580 59
2009-07-10 14:32 51°14.526 2°54.655 4.5 15 17.2 101580 61
2009-07-10 14:33 51°14.431 2°54.936 6.7 12 17.1 101570 62
2009-07-10 14:34 51°14.308 2°55.177 5.8 8 17 101560 61
2009-07-10 14:35 51°14.188 2°55.343 7.3 14 17 101570 60
2009-07-10 14:36 51°14.056 2°55.456 5.6 352 17 101570 59
2009-07-10 14:37 51°13.934 2°55.549 8.7 15 17.1 101570 57
2009-07-10 14:38 51°13.824 2°55.633 3 12 17.1 101570 58
2009-07-10 14:39 51°13.737 2°55.739 0.6 20 17.2 101580 57
2009-07-10 14:40 51°13.691 2°55.844 1.5 24 17.4 101580 58
2009-07-10 14:41 51°13.668 2°55.929 3.4 30 17.6 101580 57
2009-07-10 14:42 51°13.662 2°55.958 5.4 41 17.7 101580 56